sensor_id;sensor_type;location;lat;lon;timestamp;pressure;altitude;pressure_sealevel;temperature;humidity
70900;BME280;67902;52.154;5.430;2024-03-08T00:00:16;102012.59;;;3.36;94.07
70900;BME280;67902;52.154;5.430;2024-03-08T00:02:45;102018.78;;;3.36;93.57
70900;BME280;67902;52.154;5.430;2024-03-08T00:05:13;102007.06;;;3.29;93.69
70900;BME280;67902;52.154;5.430;2024-03-08T00:07:41;102009.72;;;3.21;94.74
70900;BME280;67902;52.154;5.430;2024-03-08T00:10:10;101999.69;;;3.23;94.64
70900;BME280;67902;52.154;5.430;2024-03-08T00:12:40;102007.72;;;3.23;94.91
70900;BME280;67902;52.154;5.430;2024-03-08T00:15:13;102004.72;;;3.26;94.73
70900;BME280;67902;52.154;5.430;2024-03-08T00:17:45;101998.38;;;3.19;94.44
70900;BME280;67902;52.154;5.430;2024-03-08T00:20:12;101995.50;;;3.13;94.46
70900;BME280;67902;52.154;5.430;2024-03-08T00:22:40;101988.00;;;3.08;94.98
70900;BME280;67902;52.154;5.430;2024-03-08T00:25:07;101996.69;;;3.02;94.97
70900;BME280;67902;52.154;5.430;2024-03-08T00:27:38;101994.69;;;2.96;94.83
70900;BME280;67902;52.154;5.430;2024-03-08T00:30:05;101998.84;;;2.99;94.83
70900;BME280;67902;52.154;5.430;2024-03-08T00:32:33;101998.00;;;2.98;95.60
70900;BME280;67902;52.154;5.430;2024-03-08T00:34:59;101995.00;;;3.01;94.71
70900;BME280;67902;52.154;5.430;2024-03-08T00:37:26;101983.66;;;2.99;95.12
70900;BME280;67902;52.154;5.430;2024-03-08T00:39:53;101996.84;;;3.01;94.99
70900;BME280;67902;52.154;5.430;2024-03-08T00:42:20;101988.34;;;2.97;95.16
70900;BME280;67902;52.154;5.430;2024-03-08T00:44:47;101982.63;;;2.92;94.76
70900;BME280;67902;52.154;5.430;2024-03-08T00:47:14;101984.63;;;2.90;95.47
70900;BME280;67902;52.154;5.430;2024-03-08T00:49:41;101981.97;;;2.82;95.45
70900;BME280;67902;52.154;5.430;2024-03-08T00:52:08;101979.47;;;2.80;95.48
70900;BME280;67902;52.154;5.430;2024-03-08T00:54:35;101979.94;;;2.84;95.47
70900;BME280;67902;52.154;5.430;2024-03-08T00:57:04;101978.94;;;2.77;95.65
70900;BME280;67902;52.154;5.430;2024-03-08T00:59:33;101983.13;;;2.71;95.81
70900;BME280;67902;52.154;5.430;2024-03-08T01:02:01;101968.06;;;2.70;96.08
70900;BME280;67902;52.154;5.430;2024-03-08T01:04:27;101969.22;;;2.68;96.24
70900;BME280;67902;52.154;5.430;2024-03-08T01:06:58;101961.38;;;2.66;96.17
70900;BME280;67902;52.154;5.430;2024-03-08T01:09:26;101954.34;;;2.65;96.16
70900;BME280;67902;52.154;5.430;2024-03-08T01:11:53;101953.69;;;2.63;95.28
70900;BME280;67902;52.154;5.430;2024-03-08T01:14:23;101948.00;;;2.58;95.76
70900;BME280;67902;52.154;5.430;2024-03-08T01:16:50;101944.81;;;2.55;95.40
70900;BME280;67902;52.154;5.430;2024-03-08T01:19:17;101937.78;;;2.46;95.58
70900;BME280;67902;52.154;5.430;2024-03-08T01:21:44;101934.78;;;2.41;95.91
70900;BME280;67902;52.154;5.430;2024-03-08T01:24:10;101930.28;;;2.41;96.16
70900;BME280;67902;52.154;5.430;2024-03-08T01:26:37;101930.75;;;2.37;96.18
70900;BME280;67902;52.154;5.430;2024-03-08T01:29:04;101924.72;;;2.34;96.08
70900;BME280;67902;52.154;5.430;2024-03-08T01:31:31;101928.72;;;2.30;96.48
70900;BME280;67902;52.154;5.430;2024-03-08T01:34:00;101925.25;;;2.30;96.27
70900;BME280;67902;52.154;5.430;2024-03-08T01:36:27;101913.72;;;2.29;96.20
70900;BME280;67902;52.154;5.430;2024-03-08T01:38:53;101917.88;;;2.24;96.42
70900;BME280;67902;52.154;5.430;2024-03-08T01:41:20;101912.00;;;2.20;96.54
70900;BME280;67902;52.154;5.430;2024-03-08T01:43:47;101917.03;;;2.23;96.65
70900;BME280;67902;52.154;5.430;2024-03-08T01:46:19;101904.16;;;2.19;96.43
70900;BME280;67902;52.154;5.430;2024-03-08T01:48:45;101907.84;;;2.18;96.46
70900;BME280;67902;52.154;5.430;2024-03-08T01:51:13;101900.81;;;2.17;96.33
70900;BME280;67902;52.154;5.430;2024-03-08T01:53:42;101898.31;;;2.15;96.28
70900;BME280;67902;52.154;5.430;2024-03-08T01:56:12;101898.78;;;2.11;96.15
70900;BME280;67902;52.154;5.430;2024-03-08T01:58:41;101895.31;;;2.10;96.80
70900;BME280;67902;52.154;5.430;2024-03-08T02:01:12;101898.28;;;2.07;96.24
70900;BME280;67902;52.154;5.430;2024-03-08T02:03:41;101895.94;;;2.04;96.74
70900;BME280;67902;52.154;5.430;2024-03-08T02:06:13;101896.09;;;2.03;97.10
70900;BME280;67902;52.154;5.430;2024-03-08T02:08:43;101888.91;;;2.03;96.40
70900;BME280;67902;52.154;5.430;2024-03-08T02:11:13;101889.56;;;1.97;96.82
70900;BME280;67902;52.154;5.430;2024-03-08T02:13:41;101885.91;;;1.98;96.66
70900;BME280;67902;52.154;5.430;2024-03-08T02:16:07;101891.91;;;2.00;97.33
70900;BME280;67902;52.154;5.430;2024-03-08T02:18:35;101884.53;;;1.94;97.28
70900;BME280;67902;52.154;5.430;2024-03-08T02:21:03;101896.06;;;1.95;97.69
70900;BME280;67902;52.154;5.430;2024-03-08T02:23:31;101888.69;;;1.89;97.76
70900;BME280;67902;52.154;5.430;2024-03-08T02:25:58;101880.19;;;1.85;97.88
70900;BME280;67902;52.154;5.430;2024-03-08T02:28:25;101872.53;;;1.90;97.74
70900;BME280;67902;52.154;5.430;2024-03-08T02:30:52;101879.69;;;1.82;97.17
70900;BME280;67902;52.154;5.430;2024-03-08T02:33:26;101868.47;;;1.78;97.50
70900;BME280;67902;52.154;5.430;2024-03-08T02:35:53;101865.97;;;1.77;97.52
70900;BME280;67902;52.154;5.430;2024-03-08T02:38:21;101867.94;;;1.74;97.80
70900;BME280;67902;52.154;5.430;2024-03-08T02:40:51;101867.47;;;1.71;97.69
70900;BME280;67902;52.154;5.430;2024-03-08T02:43:20;101860.44;;;1.70;97.76
70900;BME280;67902;52.154;5.430;2024-03-08T02:45:48;101861.44;;;1.69;98.56
70900;BME280;67902;52.154;5.430;2024-03-08T02:48:16;101851.75;;;1.68;97.81
70900;BME280;67902;52.154;5.430;2024-03-08T02:50:43;101849.25;;;1.66;97.56
70900;BME280;67902;52.154;5.430;2024-03-08T02:53:12;101846.91;;;1.63;98.04
70900;BME280;67902;52.154;5.430;2024-03-08T02:55:39;101846.75;;;1.65;97.97
70900;BME280;67902;52.154;5.430;2024-03-08T02:58:08;101842.06;;;1.59;98.51
70900;BME280;67902;52.154;5.430;2024-03-08T03:00:37;101839.19;;;1.52;98.31
70900;BME280;67902;52.154;5.430;2024-03-08T03:03:07;101836.69;;;1.51;98.09
70900;BME280;67902;52.154;5.430;2024-03-08T03:05:34;101828.34;;;1.46;98.05
70900;BME280;67902;52.154;5.430;2024-03-08T03:08:01;101834.78;;;1.43;98.45
70900;BME280;67902;52.154;5.430;2024-03-08T03:10:30;101831.31;;;1.43;98.54
70900;BME280;67902;52.154;5.430;2024-03-08T03:12:57;101829.47;;;1.43;98.16
70900;BME280;67902;52.154;5.430;2024-03-08T03:15:24;101833.28;;;1.41;98.29
70900;BME280;67902;52.154;5.430;2024-03-08T03:17:53;101817.28;;;1.41;98.20
70900;BME280;67902;52.154;5.430;2024-03-08T03:20:20;101816.13;;;1.43;98.14
70900;BME280;67902;52.154;5.430;2024-03-08T03:22:53;101816.13;;;1.43;97.53
70900;BME280;67902;52.154;5.430;2024-03-08T03:25:20;101810.47;;;1.46;97.98
70900;BME280;67902;52.154;5.430;2024-03-08T03:27:52;101813.31;;;1.45;97.58
70900;BME280;67902;52.154;5.430;2024-03-08T03:30:19;101807.13;;;1.44;97.03
70900;BME280;67902;52.154;5.430;2024-03-08T03:32:48;101805.13;;;1.46;97.04
70900;BME280;67902;52.154;5.430;2024-03-08T03:35:17;101802.47;;;1.46;96.47
70900;BME280;67902;52.154;5.430;2024-03-08T03:37:43;101807.97;;;1.45;96.51
70900;BME280;67902;52.154;5.430;2024-03-08T03:40:30;101803.78;;;1.42;96.33
70900;BME280;67902;52.154;5.430;2024-03-08T03:42:57;101798.47;;;1.42;96.34
70900;BME280;67902;52.154;5.430;2024-03-08T03:45:24;101805.44;;;1.43;96.29
70900;BME280;67902;52.154;5.430;2024-03-08T03:47:51;101796.63;;;1.43;95.74
70900;BME280;67902;52.154;5.430;2024-03-08T03:50:19;101791.28;;;1.43;96.14
70900;BME280;67902;52.154;5.430;2024-03-08T03:52:48;101794.78;;;1.43;95.87
70900;BME280;67902;52.154;5.430;2024-03-08T03:55:15;101797.94;;;1.39;95.52
70900;BME280;67902;52.154;5.430;2024-03-08T03:57:42;101792.59;;;1.39;95.75
70900;BME280;67902;52.154;5.430;2024-03-08T04:00:09;101785.56;;;1.38;95.00
70900;BME280;67902;52.154;5.430;2024-03-08T04:02:40;101790.91;;;1.38;94.73
70900;BME280;67902;52.154;5.430;2024-03-08T04:05:08;101789.25;;;1.37;95.23
70900;BME280;67902;52.154;5.430;2024-03-08T04:07:37;101789.25;;;1.37;94.65
70900;BME280;67902;52.154;5.430;2024-03-08T04:10:05;101783.94;;;1.37;94.87
70900;BME280;67902;52.154;5.430;2024-03-08T04:12:35;101785.75;;;1.36;94.49
70900;BME280;67902;52.154;5.430;2024-03-08T04:15:02;101780.59;;;1.35;94.78
70900;BME280;67902;52.154;5.430;2024-03-08T04:17:28;101778.59;;;1.37;93.96
70900;BME280;67902;52.154;5.430;2024-03-08T04:19:55;101780.25;;;1.38;94.63
70900;BME280;67902;52.154;5.430;2024-03-08T04:22:22;101778.59;;;1.37;93.65
70900;BME280;67902;52.154;5.430;2024-03-08T04:24:48;101774.09;;;1.37;93.97
70900;BME280;67902;52.154;5.430;2024-03-08T04:27:15;101769.91;;;1.35;93.77
70900;BME280;67902;52.154;5.430;2024-03-08T04:29:42;101775.56;;;1.32;94.10
70900;BME280;67902;52.154;5.430;2024-03-08T04:32:09;101772.22;;;1.30;93.89
70900;BME280;67902;52.154;5.430;2024-03-08T04:34:36;101764.53;;;1.27;94.28
70900;BME280;67902;52.154;5.430;2024-03-08T04:37:03;101773.53;;;1.26;93.88
70900;BME280;67902;52.154;5.430;2024-03-08T04:39:31;101771.19;;;1.23;93.62
70900;BME280;67902;52.154;5.430;2024-03-08T04:41:59;101770.19;;;1.24;94.18
70900;BME280;67902;52.154;5.430;2024-03-08T04:44:32;101760.53;;;1.23;93.68
70900;BME280;67902;52.154;5.430;2024-03-08T04:46:59;101763.03;;;1.24;93.15
70900;BME280;67902;52.154;5.430;2024-03-08T04:49:27;101763.88;;;1.25;92.94
70900;BME280;67902;52.154;5.430;2024-03-08T04:51:54;101757.03;;;1.22;93.27
70900;BME280;67902;52.154;5.430;2024-03-08T04:54:21;101761.38;;;1.23;92.63
70900;BME280;67902;52.154;5.430;2024-03-08T04:56:47;101755.50;;;1.20;92.74
70900;BME280;67902;52.154;5.430;2024-03-08T04:59:14;101762.00;;;1.17;93.11
70900;BME280;67902;52.154;5.430;2024-03-08T05:01:41;101754.16;;;1.15;93.51
70900;BME280;67902;52.154;5.430;2024-03-08T05:04:07;101752.31;;;1.16;92.86
70900;BME280;67902;52.154;5.430;2024-03-08T05:06:35;101756.31;;;1.12;93.22
70900;BME280;67902;52.154;5.430;2024-03-08T05:09:03;101747.47;;;1.11;93.67
70900;BME280;67902;52.154;5.430;2024-03-08T05:11:41;101760.16;;;1.09;92.73
70900;BME280;67902;52.154;5.430;2024-03-08T05:14:07;101754.97;;;1.08;92.49
70900;BME280;67902;52.154;5.430;2024-03-08T05:16:34;101753.59;;;1.04;92.71
70900;BME280;67902;52.154;5.430;2024-03-08T05:19:02;101756.09;;;0.97;93.20
70900;BME280;67902;52.154;5.430;2024-03-08T05:21:29;101759.72;;;0.96;93.20
70900;BME280;67902;52.154;5.430;2024-03-08T05:23:55;101758.09;;;0.95;93.82
70900;BME280;67902;52.154;5.430;2024-03-08T05:26:22;101757.38;;;0.93;93.32
70900;BME280;67902;52.154;5.430;2024-03-08T05:28:48;101747.88;;;0.91;93.52
70900;BME280;67902;52.154;5.430;2024-03-08T05:31:22;101748.72;;;0.91;93.88
70900;BME280;67902;52.154;5.430;2024-03-08T05:33:49;101753.69;;;0.86;93.91
70900;BME280;67902;52.154;5.430;2024-03-08T05:36:16;101748.69;;;0.83;94.42
70900;BME280;67902;52.154;5.430;2024-03-08T05:38:43;101741.97;;;0.79;94.06
70900;BME280;67902;52.154;5.430;2024-03-08T05:41:10;101745.66;;;0.78;94.87
70900;BME280;67902;52.154;5.430;2024-03-08T05:43:40;101740.31;;;0.78;94.71
70900;BME280;67902;52.154;5.430;2024-03-08T05:46:06;101739.63;;;0.76;94.84
70900;BME280;67902;52.154;5.430;2024-03-08T05:48:33;101740.78;;;0.74;93.99
70900;BME280;67902;52.154;5.430;2024-03-08T05:51:00;101735.81;;;0.79;94.12
70900;BME280;67902;52.154;5.430;2024-03-08T05:53:26;101735.00;;;0.78;94.04
70900;BME280;67902;52.154;5.430;2024-03-08T05:55:53;101740.47;;;0.77;93.81
70900;BME280;67902;52.154;5.430;2024-03-08T05:58:20;101733.50;;;0.76;94.35
70900;BME280;67902;52.154;5.430;2024-03-08T06:00:46;101729.97;;;0.75;94.18
70900;BME280;67902;52.154;5.430;2024-03-08T06:03:18;101721.28;;;0.73;94.58
70900;BME280;67902;52.154;5.430;2024-03-08T06:05:48;101721.47;;;0.72;94.46
70900;BME280;67902;52.154;5.430;2024-03-08T06:08:16;101722.44;;;0.71;94.26
70900;BME280;67902;52.154;5.430;2024-03-08T06:10:43;101720.47;;;0.73;94.21
70900;BME280;67902;52.154;5.430;2024-03-08T06:13:09;101718.78;;;0.72;94.52
70900;BME280;67902;52.154;5.430;2024-03-08T06:15:38;101716.78;;;0.74;94.15
70900;BME280;67902;52.154;5.430;2024-03-08T06:18:05;101717.63;;;0.74;93.92
70900;BME280;67902;52.154;5.430;2024-03-08T06:20:32;101717.31;;;0.77;94.08
70900;BME280;67902;52.154;5.430;2024-03-08T06:22:59;101715.00;;;0.82;94.51
70900;BME280;67902;52.154;5.430;2024-03-08T06:25:26;101715.34;;;0.87;93.47
70900;BME280;67902;52.154;5.430;2024-03-08T06:27:52;101713.22;;;0.91;93.99
70900;BME280;67902;52.154;5.430;2024-03-08T06:30:19;101724.41;;;0.94;94.00
70900;BME280;67902;52.154;5.430;2024-03-08T06:32:48;101717.59;;;1.00;93.02
70900;BME280;67902;52.154;5.430;2024-03-08T06:35:14;101716.44;;;1.02;93.22
70900;BME280;67902;52.154;5.430;2024-03-08T06:37:42;101711.44;;;1.07;92.74
70900;BME280;67902;52.154;5.430;2024-03-08T06:40:11;101709.81;;;1.14;92.55
70900;BME280;67902;52.154;5.430;2024-03-08T06:42:41;101714.16;;;1.24;92.10
70900;BME280;67902;52.154;5.430;2024-03-08T06:45:07;101710.38;;;1.34;92.12
70900;BME280;67902;52.154;5.430;2024-03-08T06:47:36;101708.94;;;1.56;92.13
70900;BME280;67902;52.154;5.430;2024-03-08T06:50:04;101704.94;;;1.68;91.15
70900;BME280;67902;52.154;5.430;2024-03-08T06:52:30;101698.97;;;1.74;90.29
70900;BME280;67902;52.154;5.430;2024-03-08T06:54:57;101703.13;;;1.77;90.08
70900;BME280;67902;52.154;5.430;2024-03-08T06:57:24;101696.63;;;1.79;90.49
70900;BME280;67902;52.154;5.430;2024-03-08T06:59:50;101701.97;;;1.95;90.16
70900;BME280;67902;52.154;5.430;2024-03-08T07:02:18;101701.28;;;2.09;89.44
70900;BME280;67902;52.154;5.430;2024-03-08T07:04:45;101699.94;;;1.97;88.78
70900;BME280;67902;52.154;5.430;2024-03-08T07:07:11;101698.44;;;1.95;88.39
70900;BME280;67902;52.154;5.430;2024-03-08T07:09:38;101694.94;;;1.94;89.09
70900;BME280;67902;52.154;5.430;2024-03-08T07:12:05;101689.94;;;1.99;88.35
70900;BME280;67902;52.154;5.430;2024-03-08T07:14:31;101701.63;;;2.06;88.62
70900;BME280;67902;52.154;5.430;2024-03-08T07:16:58;101693.78;;;2.13;88.18
70900;BME280;67902;52.154;5.430;2024-03-08T07:19:24;101692.09;;;2.20;88.07
70900;BME280;67902;52.154;5.430;2024-03-08T07:21:51;101692.25;;;2.26;88.11
70900;BME280;67902;52.154;5.430;2024-03-08T07:24:17;101690.91;;;2.39;87.48
70900;BME280;67902;52.154;5.430;2024-03-08T07:26:44;101682.69;;;2.48;87.30
70900;BME280;67902;52.154;5.430;2024-03-08T07:29:10;101686.19;;;2.57;86.42
70900;BME280;67902;52.154;5.430;2024-03-08T07:31:37;101684.69;;;3.01;86.04
70900;BME280;67902;52.154;5.430;2024-03-08T07:34:03;101677.91;;;3.21;85.05
70900;BME280;67902;52.154;5.430;2024-03-08T07:36:34;101676.47;;;3.64;84.62
70900;BME280;67902;52.154;5.430;2024-03-08T07:39:04;101669.00;;;4.49;80.99
70900;BME280;67902;52.154;5.430;2024-03-08T07:41:38;101665.78;;;4.83;80.21
70900;BME280;67902;52.154;5.430;2024-03-08T07:44:07;101668.66;;;4.52;78.33
70900;BME280;67902;52.154;5.430;2024-03-08T07:46:34;101669.31;;;4.17;79.89
70900;BME280;67902;52.154;5.430;2024-03-08T07:49:00;101665.31;;;3.98;79.92
70900;BME280;67902;52.154;5.430;2024-03-08T07:51:27;101664.13;;;4.00;80.64
70900;BME280;67902;52.154;5.430;2024-03-08T07:53:54;101669.19;;;4.47;79.76
70900;BME280;67902;52.154;5.430;2024-03-08T07:56:26;101646.56;;;5.36;77.14
70900;BME280;67902;52.154;5.430;2024-03-08T07:58:52;101653.53;;;6.09;74.43
70900;BME280;67902;52.154;5.430;2024-03-08T08:01:20;101651.19;;;6.61;70.72
70900;BME280;67902;52.154;5.430;2024-03-08T08:03:46;101644.44;;;7.26;69.24
70900;BME280;67902;52.154;5.430;2024-03-08T08:06:15;101642.28;;;8.01;69.50
70900;BME280;67902;52.154;5.430;2024-03-08T08:08:42;101638.09;;;8.51;64.90
70900;BME280;67902;52.154;5.430;2024-03-08T08:11:09;101637.31;;;8.25;64.23
70900;BME280;67902;52.154;5.430;2024-03-08T08:13:36;101630.56;;;8.73;62.57
70900;BME280;67902;52.154;5.430;2024-03-08T08:16:03;101635.53;;;8.76;61.30
70900;BME280;67902;52.154;5.430;2024-03-08T08:18:32;101626.31;;;9.03;59.71
70900;BME280;67902;52.154;5.430;2024-03-08T08:21:00;101617.53;;;9.77;58.60
70900;BME280;67902;52.154;5.430;2024-03-08T08:23:26;101620.47;;;9.75;57.57
70900;BME280;67902;52.154;5.430;2024-03-08T08:25:53;101617.56;;;10.02;57.42
70900;BME280;67902;52.154;5.430;2024-03-08T08:28:19;101608.44;;;10.45;55.21
70900;BME280;67902;52.154;5.430;2024-03-08T08:30:47;101614.00;;;10.87;53.99
70900;BME280;67902;52.154;5.430;2024-03-08T08:33:15;101613.69;;;10.40;52.88
70900;BME280;67902;52.154;5.430;2024-03-08T08:35:41;101607.84;;;10.80;54.40
70900;BME280;67902;52.154;5.430;2024-03-08T08:38:08;101600.34;;;11.41;51.41
70900;BME280;67902;52.154;5.430;2024-03-08T08:40:35;101606.31;;;11.02;51.40
70900;BME280;67902;52.154;5.430;2024-03-08T08:43:04;101590.63;;;11.22;51.44
70900;BME280;67902;52.154;5.430;2024-03-08T08:45:31;101594.47;;;11.97;49.96
70900;BME280;67902;52.154;5.430;2024-03-08T08:47:58;101595.31;;;12.44;48.73
70900;BME280;67902;52.154;5.430;2024-03-08T08:50:26;101589.16;;;13.12;47.30
70900;BME280;67902;52.154;5.430;2024-03-08T08:52:55;101578.47;;;13.83;46.08
70900;BME280;67902;52.154;5.430;2024-03-08T08:55:22;101582.41;;;13.92;44.66
70900;BME280;67902;52.154;5.430;2024-03-08T08:57:53;101575.81;;;13.55;45.86
70900;BME280;67902;52.154;5.430;2024-03-08T09:00:20;101564.38;;;14.03;45.25
70900;BME280;67902;52.154;5.430;2024-03-08T09:02:48;101567.53;;;14.50;44.94
70900;BME280;67902;52.154;5.430;2024-03-08T09:05:17;101564.75;;;14.67;43.69
70900;BME280;67902;52.154;5.430;2024-03-08T09:07:44;101565.31;;;14.90;42.19
70900;BME280;67902;52.154;5.430;2024-03-08T09:10:11;101556.22;;;15.55;40.64
70900;BME280;67902;52.154;5.430;2024-03-08T09:12:41;101554.97;;;15.19;41.46
70900;BME280;67902;52.154;5.430;2024-03-08T09:15:08;101554.59;;;15.32;41.02
70900;BME280;67902;52.154;5.430;2024-03-08T09:17:37;101554.97;;;14.92;41.26
70900;BME280;67902;52.154;5.430;2024-03-08T09:20:08;101545.63;;;15.37;40.37
70900;BME280;67902;52.154;5.430;2024-03-08T09:22:36;101539.47;;;15.83;39.21
70900;BME280;67902;52.154;5.430;2024-03-08T09:25:02;101535.69;;;15.84;40.19
70900;BME280;67902;52.154;5.430;2024-03-08T09:27:32;101528.25;;;16.63;38.59
70900;BME280;67902;52.154;5.430;2024-03-08T09:29:58;101533.34;;;16.50;37.79
70900;BME280;67902;52.154;5.430;2024-03-08T09:32:25;101525.28;;;16.28;37.47
70900;BME280;67902;52.154;5.430;2024-03-08T09:34:52;101523.44;;;15.92;38.34
70900;BME280;67902;52.154;5.430;2024-03-08T09:37:19;101526.63;;;15.79;38.93
70900;BME280;67902;52.154;5.430;2024-03-08T09:39:46;101516.41;;;15.64;38.97
70900;BME280;67902;52.154;5.430;2024-03-08T09:42:12;101505.53;;;16.63;38.81
70900;BME280;67902;52.154;5.430;2024-03-08T09:44:47;101510.66;;;17.31;37.58
70900;BME280;67902;52.154;5.430;2024-03-08T09:47:14;101505.16;;;17.26;36.23
70900;BME280;67902;52.154;5.430;2024-03-08T09:49:49;101502.81;;;16.68;36.35
70900;BME280;67902;52.154;5.430;2024-03-08T09:52:16;101497.75;;;16.40;37.92
70900;BME280;67902;52.154;5.430;2024-03-08T09:54:44;101495.75;;;16.82;36.97
70900;BME280;67902;52.154;5.430;2024-03-08T09:57:11;101475.59;;;17.69;35.63
70900;BME280;67902;52.154;5.430;2024-03-08T09:59:38;101480.47;;;17.01;36.81
70900;BME280;67902;52.154;5.430;2024-03-08T10:02:05;101475.31;;;17.90;35.48
70900;BME280;67902;52.154;5.430;2024-03-08T10:04:32;101475.50;;;18.24;35.01
70900;BME280;67902;52.154;5.430;2024-03-08T10:07:04;101465.28;;;18.40;36.21
70900;BME280;67902;52.154;5.430;2024-03-08T10:09:33;101470.28;;;18.23;36.46
70900;BME280;67902;52.154;5.430;2024-03-08T10:11:59;101464.06;;;18.71;34.70
70900;BME280;67902;52.154;5.430;2024-03-08T10:14:26;101461.22;;;18.91;34.24
70900;BME280;67902;52.154;5.430;2024-03-08T10:16:53;101455.88;;;19.10;33.36
70900;BME280;67902;52.154;5.430;2024-03-08T10:19:21;101451.22;;;18.62;34.41
70900;BME280;67902;52.154;5.430;2024-03-08T10:21:52;101444.25;;;19.18;33.32
70900;BME280;67902;52.154;5.430;2024-03-08T10:24:23;101436.97;;;19.37;33.41
70900;BME280;67902;52.154;5.430;2024-03-08T10:26:53;101429.78;;;18.69;32.83
70900;BME280;67902;52.154;5.430;2024-03-08T10:29:21;101426.06;;;19.27;33.17
70900;BME280;67902;52.154;5.430;2024-03-08T10:31:47;101424.63;;;19.68;32.31
70900;BME280;67902;52.154;5.430;2024-03-08T10:34:14;101422.63;;;18.73;33.69
70900;BME280;67902;52.154;5.430;2024-03-08T10:36:41;101413.81;;;18.76;32.69
70900;BME280;67902;52.154;5.430;2024-03-08T10:39:24;101413.22;;;18.89;33.77
70900;BME280;67902;52.154;5.430;2024-03-08T10:41:56;101409.25;;;18.66;34.26
70900;BME280;67902;52.154;5.430;2024-03-08T10:44:36;101404.47;;;19.16;33.45
70900;BME280;67902;52.154;5.430;2024-03-08T10:47:18;101396.13;;;19.26;33.26
70900;BME280;67902;52.154;5.430;2024-03-08T10:50:01;101390.31;;;19.32;33.30
70900;BME280;67902;52.154;5.430;2024-03-08T10:52:31;101388.91;;;19.40;32.85
70900;BME280;67902;52.154;5.430;2024-03-08T10:54:59;101382.78;;;20.19;31.84
70900;BME280;67902;52.154;5.430;2024-03-08T10:57:26;101383.41;;;19.68;31.43
70900;BME280;67902;52.154;5.430;2024-03-08T10:59:54;101381.88;;;19.57;32.15
70900;BME280;67902;52.154;5.430;2024-03-08T11:02:25;101365.31;;;19.05;33.74
70900;BME280;67902;52.154;5.430;2024-03-08T11:04:53;101358.88;;;19.96;32.42
70900;BME280;67902;52.154;5.430;2024-03-08T11:07:24;101366.31;;;19.72;32.36
70900;BME280;67902;52.154;5.430;2024-03-08T11:09:53;101341.31;;;19.16;31.93
70900;BME280;67902;52.154;5.430;2024-03-08T11:12:27;101349.72;;;18.62;32.47
70900;BME280;67902;52.154;5.430;2024-03-08T11:15:00;101342.38;;;18.91;32.19
70900;BME280;67902;52.154;5.430;2024-03-08T11:19:58;101335.19;;;18.95;33.12
70900;BME280;67902;52.154;5.430;2024-03-08T11:22:28;101324.75;;;18.97;33.42
70900;BME280;67902;52.154;5.430;2024-03-08T11:25:04;101328.03;;;18.99;32.56
70900;BME280;67902;52.154;5.430;2024-03-08T11:27:36;101311.66;;;18.89;32.79
70900;BME280;67902;52.154;5.430;2024-03-08T11:30:07;101313.16;;;19.05;32.45
70900;BME280;67902;52.154;5.430;2024-03-08T11:32:46;101302.13;;;19.10;31.60
70900;BME280;67902;52.154;5.430;2024-03-08T11:35:18;101294.88;;;19.72;32.17
70900;BME280;67902;52.154;5.430;2024-03-08T11:37:45;101289.53;;;19.80;31.98
70900;BME280;67902;52.154;5.430;2024-03-08T11:40:12;101279.88;;;20.25;31.07
70900;BME280;67902;52.154;5.430;2024-03-08T11:42:48;101278.78;;;19.84;31.24
70900;BME280;67902;52.154;5.430;2024-03-08T11:45:16;101272.28;;;19.98;31.42
70900;BME280;67902;52.154;5.430;2024-03-08T11:47:44;101267.06;;;20.15;30.69
70900;BME280;67902;52.154;5.430;2024-03-08T11:50:13;101266.13;;;19.40;31.68
70900;BME280;67902;52.154;5.430;2024-03-08T11:52:40;101270.19;;;19.48;31.22
70900;BME280;67902;52.154;5.430;2024-03-08T11:55:07;101251.72;;;19.72;32.37
70900;BME280;67902;52.154;5.430;2024-03-08T11:57:34;101247.97;;;20.75;32.13
70900;BME280;67902;52.154;5.430;2024-03-08T12:00:01;101252.25;;;20.67;29.45
70900;BME280;67902;52.154;5.430;2024-03-08T12:02:34;101238.75;;;19.78;30.94
70900;BME280;67902;52.154;5.430;2024-03-08T12:05:05;101240.16;;;19.51;30.84
70900;BME280;67902;52.154;5.430;2024-03-08T12:07:36;101236.94;;;18.92;31.18
70900;BME280;67902;52.154;5.430;2024-03-08T12:10:22;101234.66;;;19.94;32.16
70900;BME280;67902;52.154;5.430;2024-03-08T12:12:51;101232.56;;;19.67;31.20
70900;BME280;67902;52.154;5.430;2024-03-08T12:15:19;101226.56;;;19.84;31.41
70900;BME280;67902;52.154;5.430;2024-03-08T12:17:49;101218.53;;;20.06;31.99
70900;BME280;67902;52.154;5.430;2024-03-08T12:20:21;101216.44;;;20.35;30.95
70900;BME280;67902;52.154;5.430;2024-03-08T12:22:49;101210.66;;;20.18;30.31
70900;BME280;67902;52.154;5.430;2024-03-08T12:25:35;101212.16;;;19.92;30.25
70900;BME280;67902;52.154;5.430;2024-03-08T12:28:09;101210.66;;;19.81;30.85
70900;BME280;67902;52.154;5.430;2024-03-08T12:30:48;101202.72;;;19.98;30.20
70900;BME280;67902;52.154;5.430;2024-03-08T12:33:15;101194.47;;;19.98;30.17
70900;BME280;67902;52.154;5.430;2024-03-08T12:35:50;101196.91;;;19.62;30.55
70900;BME280;67902;52.154;5.430;2024-03-08T12:38:21;101186.69;;;19.20;31.57
70900;BME280;67902;52.154;5.430;2024-03-08T12:41:00;101181.28;;;18.91;31.44
70900;BME280;67902;52.154;5.430;2024-03-08T12:43:28;101181.25;;;19.15;30.46
70900;BME280;67902;52.154;5.430;2024-03-08T12:45:58;101190.72;;;18.51;30.92
70900;BME280;67902;52.154;5.430;2024-03-08T12:48:24;101179.44;;;18.19;31.83
70900;BME280;67902;52.154;5.430;2024-03-08T12:50:51;101175.28;;;18.61;32.82
70900;BME280;67902;52.154;5.430;2024-03-08T12:53:18;101161.50;;;18.89;32.06
70900;BME280;67902;52.154;5.430;2024-03-08T12:55:45;101170.50;;;18.95;31.11
70900;BME280;67902;52.154;5.430;2024-03-08T12:58:11;101160.41;;;17.99;31.89
70900;BME280;67902;52.154;5.430;2024-03-08T13:00:38;101160.44;;;17.94;32.53
70900;BME280;67902;52.154;5.430;2024-03-08T13:03:09;101153.81;;;18.00;32.89
70900;BME280;67902;52.154;5.430;2024-03-08T13:05:37;101154.00;;;19.00;32.12